sensor_id;sensor_type;location;lat;lon;timestamp;temperature;humidity
5940;DHT22;2995;-31.998;115.906;2023-02-15T00:01:12;22.60;99.90
5940;DHT22;2995;-31.998;115.906;2023-02-15T00:03:43;22.50;99.90
5940;DHT22;2995;-31.998;115.906;2023-02-15T00:06:14;21.90;99.90
5940;DHT22;2995;-31.998;115.906;2023-02-15T00:08:49;21.90;99.90
5940;DHT22;2995;-31.998;115.906;2023-02-15T00:11:21;22.10;99.90
5940;DHT22;2995;-31.998;115.906;2023-02-15T00:14:05;22.20;99.90
5940;DHT22;2995;-31.998;115.906;2023-02-15T00:16:36;22.50;99.90
5940;DHT22;2995;-31.998;115.906;2023-02-15T00:19:08;22.50;99.90
5940;DHT22;2995;-31.998;115.906;2023-02-15T00:21:41;22.60;99.90
5940;DHT22;2995;-31.998;115.906;2023-02-15T00:24:15;22.20;99.90
5940;DHT22;2995;-31.998;115.906;2023-02-15T00:26:48;22.30;99.90
5940;DHT22;2995;-31.998;115.906;2023-02-15T00:29:20;22.20;99.90
5940;DHT22;2995;-31.998;115.906;2023-02-15T00:31:51;22.30;99.90
5940;DHT22;2995;-31.998;115.906;2023-02-15T00:34:25;22.40;99.90
5940;DHT22;2995;-31.998;115.906;2023-02-15T00:36:57;22.40;99.90
5940;DHT22;2995;-31.998;115.906;2023-02-15T00:39:30;22.50;99.90
5940;DHT22;2995;-31.998;115.906;2023-02-15T00:42:01;22.50;99.90
5940;DHT22;2995;-31.998;115.906;2023-02-15T00:44:32;22.60;99.90
5940;DHT22;2995;-31.998;115.906;2023-02-15T00:47:03;22.50;99.90
5940;DHT22;2995;-31.998;115.906;2023-02-15T00:49:38;22.50;99.90
5940;DHT22;2995;-31.998;115.906;2023-02-15T00:52:09;22.40;99.90
5940;DHT22;2995;-31.998;115.906;2023-02-15T00:54:42;22.40;99.90
5940;DHT22;2995;-31.998;115.906;2023-02-15T00:57:13;22.40;99.90
5940;DHT22;2995;-31.998;115.906;2023-02-15T00:59:44;22.40;99.90
5940;DHT22;2995;-31.998;115.906;2023-02-15T01:02:16;22.60;99.90
5940;DHT22;2995;-31.998;115.906;2023-02-15T01:04:47;22.60;99.90
5940;DHT22;2995;-31.998;115.906;2023-02-15T01:07:18;22.50;99.90
5940;DHT22;2995;-31.998;115.906;2023-02-15T01:09:51;22.60;99.90
5940;DHT22;2995;-31.998;115.906;2023-02-15T01:12:23;22.50;99.90
5940;DHT22;2995;-31.998;115.906;2023-02-15T01:14:54;22.50;99.90
5940;DHT22;2995;-31.998;115.906;2023-02-15T01:17:25;22.80;99.90
5940;DHT22;2995;-31.998;115.906;2023-02-15T01:19:57;22.80;99.90
5940;DHT22;2995;-31.998;115.906;2023-02-15T01:22:31;22.60;99.90
5940;DHT22;2995;-31.998;115.906;2023-02-15T01:25:04;22.80;99.90
5940;DHT22;2995;-31.998;115.906;2023-02-15T01:27:38;22.90;99.90
5940;DHT22;2995;-31.998;115.906;2023-02-15T01:30:10;22.80;99.90
5940;DHT22;2995;-31.998;115.906;2023-02-15T01:32:42;22.90;99.90
5940;DHT22;2995;-31.998;115.906;2023-02-15T01:35:14;22.80;99.90
5940;DHT22;2995;-31.998;115.906;2023-02-15T01:37:45;23.00;99.90
5940;DHT22;2995;-31.998;115.906;2023-02-15T01:40:21;23.20;99.90
5940;DHT22;2995;-31.998;115.906;2023-02-15T01:42:52;23.40;99.90
5940;DHT22;2995;-31.998;115.906;2023-02-15T01:45:26;23.70;99.90
5940;DHT22;2995;-31.998;115.906;2023-02-15T01:48:01;24.00;99.90
5940;DHT22;2995;-31.998;115.906;2023-02-15T01:50:35;24.10;99.90
5940;DHT22;2995;-31.998;115.906;2023-02-15T01:53:12;24.10;99.90
5940;DHT22;2995;-31.998;115.906;2023-02-15T01:55:50;24.10;99.90
5940;DHT22;2995;-31.998;115.906;2023-02-15T01:58:24;23.90;99.90
5940;DHT22;2995;-31.998;115.906;2023-02-15T02:00:58;23.60;99.90
5940;DHT22;2995;-31.998;115.906;2023-02-15T02:03:41;23.70;99.90
5940;DHT22;2995;-31.998;115.906;2023-02-15T02:06:14;23.80;99.90
5940;DHT22;2995;-31.998;115.906;2023-02-15T02:08:45;24.20;99.90
5940;DHT22;2995;-31.998;115.906;2023-02-15T02:11:19;24.60;99.90
5940;DHT22;2995;-31.998;115.906;2023-02-15T02:13:51;24.60;99.90
5940;DHT22;2995;-31.998;115.906;2023-02-15T02:16:27;24.20;99.90
5940;DHT22;2995;-31.998;115.906;2023-02-15T02:19:31;24.20;99.90
5940;DHT22;2995;-31.998;115.906;2023-02-15T02:28:29;24.20;99.90
5940;DHT22;2995;-31.998;115.906;2023-02-15T02:31:27;24.40;99.90
5940;DHT22;2995;-31.998;115.906;2023-02-15T02:34:07;24.10;99.90
5940;DHT22;2995;-31.998;115.906;2023-02-15T02:36:48;24.60;99.90
5940;DHT22;2995;-31.998;115.906;2023-02-15T02:39:27;24.70;99.90
5940;DHT22;2995;-31.998;115.906;2023-02-15T02:42:04;24.90;99.90
5940;DHT22;2995;-31.998;115.906;2023-02-15T02:44:43;24.80;99.90
5940;DHT22;2995;-31.998;115.906;2023-02-15T02:47:18;25.00;99.90
5940;DHT22;2995;-31.998;115.906;2023-02-15T02:49:59;25.20;99.90
5940;DHT22;2995;-31.998;115.906;2023-02-15T02:52:40;25.20;99.90
5940;DHT22;2995;-31.998;115.906;2023-02-15T02:55:15;25.40;99.90
5940;DHT22;2995;-31.998;115.906;2023-02-15T02:57:53;25.50;99.90
5940;DHT22;2995;-31.998;115.906;2023-02-15T03:00:26;25.90;99.90
5940;DHT22;2995;-31.998;115.906;2023-02-15T03:03:02;26.10;99.90
5940;DHT22;2995;-31.998;115.906;2023-02-15T03:05:43;26.00;99.90
5940;DHT22;2995;-31.998;115.906;2023-02-15T03:08:16;26.10;99.90
5940;DHT22;2995;-31.998;115.906;2023-02-15T03:10:54;26.30;99.90
5940;DHT22;2995;-31.998;115.906;2023-02-15T03:13:26;26.10;99.90
5940;DHT22;2995;-31.998;115.906;2023-02-15T03:15:59;25.70;99.90
5940;DHT22;2995;-31.998;115.906;2023-02-15T03:18:49;25.60;99.90
5940;DHT22;2995;-31.998;115.906;2023-02-15T03:21:32;25.60;99.90
5940;DHT22;2995;-31.998;115.906;2023-02-15T03:24:09;25.40;99.90
5940;DHT22;2995;-31.998;115.906;2023-02-15T03:26:43;25.70;99.90
5940;DHT22;2995;-31.998;115.906;2023-02-15T03:29:17;25.50;99.90
5940;DHT22;2995;-31.998;115.906;2023-02-15T03:31:56;25.40;99.90
5940;DHT22;2995;-31.998;115.906;2023-02-15T03:34:29;24.80;99.90
5940;DHT22;2995;-31.998;115.906;2023-02-15T03:37:09;25.20;99.90
5940;DHT22;2995;-31.998;115.906;2023-02-15T03:39:44;25.60;99.90
5940;DHT22;2995;-31.998;115.906;2023-02-15T03:42:19;25.60;99.90
5940;DHT22;2995;-31.998;115.906;2023-02-15T03:44:57;25.70;99.90
5940;DHT22;2995;-31.998;115.906;2023-02-15T03:47:32;25.90;99.90
5940;DHT22;2995;-31.998;115.906;2023-02-15T03:50:07;26.10;99.90
5940;DHT22;2995;-31.998;115.906;2023-02-15T03:53:05;26.20;99.90
5940;DHT22;2995;-31.998;115.906;2023-02-15T03:55:35;26.40;99.90
5940;DHT22;2995;-31.998;115.906;2023-02-15T03:58:07;26.50;99.90
5940;DHT22;2995;-31.998;115.906;2023-02-15T04:00:57;26.80;99.90
5940;DHT22;2995;-31.998;115.906;2023-02-15T04:03:48;27.00;99.90
5940;DHT22;2995;-31.998;115.906;2023-02-15T04:06:22;27.40;99.90
5940;DHT22;2995;-31.998;115.906;2023-02-15T04:08:55;27.40;99.90
5940;DHT22;2995;-31.998;115.906;2023-02-15T04:11:42;27.50;99.90
5940;DHT22;2995;-31.998;115.906;2023-02-15T04:14:13;27.00;99.90
5940;DHT22;2995;-31.998;115.906;2023-02-15T04:17:00;26.90;99.90
5940;DHT22;2995;-31.998;115.906;2023-02-15T04:19:31;26.40;99.90
5940;DHT22;2995;-31.998;115.906;2023-02-15T04:22:18;26.50;99.90
5940;DHT22;2995;-31.998;115.906;2023-02-15T04:25:08;26.50;99.90
5940;DHT22;2995;-31.998;115.906;2023-02-15T04:27:43;26.90;99.90
5940;DHT22;2995;-31.998;115.906;2023-02-15T04:30:15;27.50;99.90
5940;DHT22;2995;-31.998;115.906;2023-02-15T04:32:47;27.50;99.90
5940;DHT22;2995;-31.998;115.906;2023-02-15T04:35:19;27.00;99.90
5940;DHT22;2995;-31.998;115.906;2023-02-15T04:37:50;26.80;99.90
5940;DHT22;2995;-31.998;115.906;2023-02-15T04:40:23;26.80;99.90
5940;DHT22;2995;-31.998;115.906;2023-02-15T04:42:54;26.60;99.90
5940;DHT22;2995;-31.998;115.906;2023-02-15T04:45:26;26.70;99.90
5940;DHT22;2995;-31.998;115.906;2023-02-15T04:47:57;27.00;99.90
5940;DHT22;2995;-31.998;115.906;2023-02-15T04:50:28;27.00;99.90
5940;DHT22;2995;-31.998;115.906;2023-02-15T04:52:59;26.80;99.90
5940;DHT22;2995;-31.998;115.906;2023-02-15T04:55:32;26.70;99.90
5940;DHT22;2995;-31.998;115.906;2023-02-15T04:58:04;26.70;99.90
5940;DHT22;2995;-31.998;115.906;2023-02-15T05:00:35;26.80;99.90
5940;DHT22;2995;-31.998;115.906;2023-02-15T05:03:07;26.60;99.90
5940;DHT22;2995;-31.998;115.906;2023-02-15T05:05:38;26.70;99.90
5940;DHT22;2995;-31.998;115.906;2023-02-15T05:08:14;26.80;99.90
5940;DHT22;2995;-31.998;115.906;2023-02-15T05:10:48;27.10;99.90
5940;DHT22;2995;-31.998;115.906;2023-02-15T05:13:20;27.40;99.90
5940;DHT22;2995;-31.998;115.906;2023-02-15T05:15:52;27.50;99.90
5940;DHT22;2995;-31.998;115.906;2023-02-15T05:18:23;27.50;99.90
5940;DHT22;2995;-31.998;115.906;2023-02-15T05:20:54;27.50;99.90
5940;DHT22;2995;-31.998;115.906;2023-02-15T05:23:26;27.60;99.90
5940;DHT22;2995;-31.998;115.906;2023-02-15T05:26:00;27.80;99.90
5940;DHT22;2995;-31.998;115.906;2023-02-15T05:28:47;27.70;99.90
5940;DHT22;2995;-31.998;115.906;2023-02-15T05:31:19;27.70;99.90
5940;DHT22;2995;-31.998;115.906;2023-02-15T05:33:53;27.60;99.90
5940;DHT22;2995;-31.998;115.906;2023-02-15T05:36:25;27.50;99.90
5940;DHT22;2995;-31.998;115.906;2023-02-15T05:38:56;27.40;99.90
5940;DHT22;2995;-31.998;115.906;2023-02-15T05:41:30;27.80;99.90
5940;DHT22;2995;-31.998;115.906;2023-02-15T05:44:01;27.50;99.90
5940;DHT22;2995;-31.998;115.906;2023-02-15T05:46:32;27.50;99.90
5940;DHT22;2995;-31.998;115.906;2023-02-15T05:49:03;27.20;99.90
5940;DHT22;2995;-31.998;115.906;2023-02-15T05:51:34;27.00;99.90
5940;DHT22;2995;-31.998;115.906;2023-02-15T05:54:06;27.10;99.90
5940;DHT22;2995;-31.998;115.906;2023-02-15T05:56:39;27.30;99.90
5940;DHT22;2995;-31.998;115.906;2023-02-15T05:59:10;27.40;99.90
5940;DHT22;2995;-31.998;115.906;2023-02-15T06:01:45;27.40;99.90
5940;DHT22;2995;-31.998;115.906;2023-02-15T06:04:16;27.70;99.90
5940;DHT22;2995;-31.998;115.906;2023-02-15T06:06:47;28.00;99.90
5940;DHT22;2995;-31.998;115.906;2023-02-15T06:09:21;28.10;99.90
5940;DHT22;2995;-31.998;115.906;2023-02-15T06:11:55;28.20;99.90
5940;DHT22;2995;-31.998;115.906;2023-02-15T06:14:26;28.00;99.90
5940;DHT22;2995;-31.998;115.906;2023-02-15T06:16:58;27.20;99.90
5940;DHT22;2995;-31.998;115.906;2023-02-15T06:19:29;26.90;99.90
5940;DHT22;2995;-31.998;115.906;2023-02-15T06:22:00;27.00;99.90
5940;DHT22;2995;-31.998;115.906;2023-02-15T06:24:31;27.30;99.90
5940;DHT22;2995;-31.998;115.906;2023-02-15T06:27:08;27.70;99.90
5940;DHT22;2995;-31.998;115.906;2023-02-15T06:29:39;27.80;99.90
5940;DHT22;2995;-31.998;115.906;2023-02-15T06:32:10;28.00;99.90
5940;DHT22;2995;-31.998;115.906;2023-02-15T06:34:42;28.20;99.90
5940;DHT22;2995;-31.998;115.906;2023-02-15T06:37:13;28.50;99.90
5940;DHT22;2995;-31.998;115.906;2023-02-15T06:39:45;28.50;99.90
5940;DHT22;2995;-31.998;115.906;2023-02-15T06:42:18;28.10;99.90
5940;DHT22;2995;-31.998;115.906;2023-02-15T06:44:49;28.00;99.90
5940;DHT22;2995;-31.998;115.906;2023-02-15T06:47:20;27.90;99.90
5940;DHT22;2995;-31.998;115.906;2023-02-15T06:49:53;28.00;99.90
5940;DHT22;2995;-31.998;115.906;2023-02-15T06:52:24;28.00;99.90
5940;DHT22;2995;-31.998;115.906;2023-02-15T06:54:56;28.10;99.90
5940;DHT22;2995;-31.998;115.906;2023-02-15T06:57:29;28.10;99.90
5940;DHT22;2995;-31.998;115.906;2023-02-15T07:00:01;27.70;99.90
5940;DHT22;2995;-31.998;115.906;2023-02-15T07:02:35;27.50;99.90
5940;DHT22;2995;-31.998;115.906;2023-02-15T07:05:06;27.80;99.90
5940;DHT22;2995;-31.998;115.906;2023-02-15T07:07:37;28.10;99.90
5940;DHT22;2995;-31.998;115.906;2023-02-15T07:10:09;28.20;99.90
5940;DHT22;2995;-31.998;115.906;2023-02-15T07:12:42;27.80;99.90
5940;DHT22;2995;-31.998;115.906;2023-02-15T07:15:15;27.60;99.90
5940;DHT22;2995;-31.998;115.906;2023-02-15T07:17:48;27.60;99.90
5940;DHT22;2995;-31.998;115.906;2023-02-15T07:20:23;27.60;99.90
5940;DHT22;2995;-31.998;115.906;2023-02-15T07:22:54;27.70;99.90
5940;DHT22;2995;-31.998;115.906;2023-02-15T07:25:26;27.70;99.90
5940;DHT22;2995;-31.998;115.906;2023-02-15T07:28:01;27.70;99.90
5940;DHT22;2995;-31.998;115.906;2023-02-15T07:30:32;27.60;99.90
5940;DHT22;2995;-31.998;115.906;2023-02-15T07:33:03;27.50;99.90
5940;DHT22;2995;-31.998;115.906;2023-02-15T07:35:51;27.40;99.90
5940;DHT22;2995;-31.998;115.906;2023-02-15T07:38:22;27.30;99.90
5940;DHT22;2995;-31.998;115.906;2023-02-15T07:40:59;27.20;99.90
5940;DHT22;2995;-31.998;115.906;2023-02-15T07:43:34;27.10;99.90
5940;DHT22;2995;-31.998;115.906;2023-02-15T07:46:07;26.90;99.90
5940;DHT22;2995;-31.998;115.906;2023-02-15T07:48:43;26.90;99.90
5940;DHT22;2995;-31.998;115.906;2023-02-15T07:51:15;27.00;99.90
5940;DHT22;2995;-31.998;115.906;2023-02-15T07:53:46;27.10;99.90
5940;DHT22;2995;-31.998;115.906;2023-02-15T07:56:19;26.80;99.90
5940;DHT22;2995;-31.998;115.906;2023-02-15T07:58:52;26.90;99.90
5940;DHT22;2995;-31.998;115.906;2023-02-15T08:01:27;26.80;99.90
5940;DHT22;2995;-31.998;115.906;2023-02-15T08:03:58;26.80;99.90
5940;DHT22;2995;-31.998;115.906;2023-02-15T08:06:32;26.70;99.90
5940;DHT22;2995;-31.998;115.906;2023-02-15T08:09:06;26.60;99.90
5940;DHT22;2995;-31.998;115.906;2023-02-15T08:11:38;26.60;99.90
5940;DHT22;2995;-31.998;115.906;2023-02-15T08:14:13;26.50;99.90
5940;DHT22;2995;-31.998;115.906;2023-02-15T08:16:46;26.50;99.90
5940;DHT22;2995;-31.998;115.906;2023-02-15T08:19:19;26.30;99.90
5940;DHT22;2995;-31.998;115.906;2023-02-15T08:21:51;26.20;99.90
5940;DHT22;2995;-31.998;115.906;2023-02-15T08:24:23;26.30;99.90
5940;DHT22;2995;-31.998;115.906;2023-02-15T08:26:55;26.00;99.90
5940;DHT22;2995;-31.998;115.906;2023-02-15T08:29:29;25.80;99.90
5940;DHT22;2995;-31.998;115.906;2023-02-15T08:32:01;25.90;99.90
5940;DHT22;2995;-31.998;115.906;2023-02-15T08:34:34;25.70;99.90
5940;DHT22;2995;-31.998;115.906;2023-02-15T08:37:05;25.70;99.90
5940;DHT22;2995;-31.998;115.906;2023-02-15T08:39:37;25.60;99.90
5940;DHT22;2995;-31.998;115.906;2023-02-15T08:42:08;25.60;99.90
5940;DHT22;2995;-31.998;115.906;2023-02-15T08:44:41;25.60;99.90
5940;DHT22;2995;-31.998;115.906;2023-02-15T08:47:15;25.50;99.90
5940;DHT22;2995;-31.998;115.906;2023-02-15T08:49:46;25.60;99.90
5940;DHT22;2995;-31.998;115.906;2023-02-15T08:52:19;25.50;99.90
5940;DHT22;2995;-31.998;115.906;2023-02-15T08:54:50;25.50;99.90
5940;DHT22;2995;-31.998;115.906;2023-02-15T08:57:21;25.40;99.90
5940;DHT22;2995;-31.998;115.906;2023-02-15T08:59:55;25.50;99.90
5940;DHT22;2995;-31.998;115.906;2023-02-15T09:02:26;25.40;99.90
5940;DHT22;2995;-31.998;115.906;2023-02-15T09:04:57;25.30;99.90
5940;DHT22;2995;-31.998;115.906;2023-02-15T09:07:28;25.20;99.90
5940;DHT22;2995;-31.998;115.906;2023-02-15T09:09:59;25.20;99.90
5940;DHT22;2995;-31.998;115.906;2023-02-15T09:12:31;25.30;99.90
5940;DHT22;2995;-31.998;115.906;2023-02-15T09:15:04;25.20;99.90
5940;DHT22;2995;-31.998;115.906;2023-02-15T09:17:35;25.30;99.90
5940;DHT22;2995;-31.998;115.906;2023-02-15T09:20:07;25.20;99.90
5940;DHT22;2995;-31.998;115.906;2023-02-15T09:22:39;25.20;99.90
5940;DHT22;2995;-31.998;115.906;2023-02-15T09:25:10;25.20;99.90
5940;DHT22;2995;-31.998;115.906;2023-02-15T09:27:42;25.10;99.90
5940;DHT22;2995;-31.998;115.906;2023-02-15T09:30:16;25.00;99.90
5940;DHT22;2995;-31.998;115.906;2023-02-15T09:32:48;25.10;99.90
5940;DHT22;2995;-31.998;115.906;2023-02-15T09:35:19;24.90;99.90
5940;DHT22;2995;-31.998;115.906;2023-02-15T09:37:50;24.80;99.90
5940;DHT22;2995;-31.998;115.906;2023-02-15T09:40:22;24.80;99.90
5940;DHT22;2995;-31.998;115.906;2023-02-15T09:43:15;24.80;99.90
5940;DHT22;2995;-31.998;115.906;2023-02-15T09:46:06;24.80;99.90
5940;DHT22;2995;-31.998;115.906;2023-02-15T09:48:43;24.70;99.90
5940;DHT22;2995;-31.998;115.906;2023-02-15T09:51:42;24.60;99.90
5940;DHT22;2995;-31.998;115.906;2023-02-15T09:54:38;24.50;99.90
5940;DHT22;2995;-31.998;115.906;2023-02-15T09:57:19;24.50;99.90
5940;DHT22;2995;-31.998;115.906;2023-02-15T10:00:01;24.50;99.90
5940;DHT22;2995;-31.998;115.906;2023-02-15T10:02:45;24.40;99.90
5940;DHT22;2995;-31.998;115.906;2023-02-15T10:05:29;24.40;99.90
5940;DHT22;2995;-31.998;115.906;2023-02-15T10:08:18;24.40;99.90
5940;DHT22;2995;-31.998;115.906;2023-02-15T10:11:03;24.20;99.90
5940;DHT22;2995;-31.998;115.906;2023-02-15T10:14:00;24.10;99.90
5940;DHT22;2995;-31.998;115.906;2023-02-15T10:16:41;24.00;99.90
5940;DHT22;2995;-31.998;115.906;2023-02-15T10:19:19;23.90;99.90
5940;DHT22;2995;-31.998;115.906;2023-02-15T10:22:03;23.90;99.90
5940;DHT22;2995;-31.998;115.906;2023-02-15T10:25:01;23.90;99.90
5940;DHT22;2995;-31.998;115.906;2023-02-15T10:27:44;23.70;99.90
5940;DHT22;2995;-31.998;115.906;2023-02-15T10:30:16;23.60;99.90
5940;DHT22;2995;-31.998;115.906;2023-02-15T10:32:59;23.60;99.90
5940;DHT22;2995;-31.998;115.906;2023-02-15T10:35:37;23.60;99.90
5940;DHT22;2995;-31.998;115.906;2023-02-15T10:38:21;23.60;99.90
5940;DHT22;2995;-31.998;115.906;2023-02-15T10:41:09;23.60;99.90
5940;DHT22;2995;-31.998;115.906;2023-02-15T10:44:03;23.50;99.90
5940;DHT22;2995;-31.998;115.906;2023-02-15T10:46:55;23.30;99.90
5940;DHT22;2995;-31.998;115.906;2023-02-15T10:49:53;23.10;99.90
5940;DHT22;2995;-31.998;115.906;2023-02-15T10:52:39;23.00;99.90
5940;DHT22;2995;-31.998;115.906;2023-02-15T10:55:17;23.00;99.90
5940;DHT22;2995;-31.998;115.906;2023-02-15T10:57:53;23.00;99.90
5940;DHT22;2995;-31.998;115.906;2023-02-15T11:00:30;22.90;99.90
5940;DHT22;2995;-31.998;115.906;2023-02-15T11:03:35;22.90;99.90
5940;DHT22;2995;-31.998;115.906;2023-02-15T11:06:13;22.80;99.90
5940;DHT22;2995;-31.998;115.906;2023-02-15T11:08:49;22.60;99.90
5940;DHT22;2995;-31.998;115.906;2023-02-15T11:11:27;22.50;99.90
5940;DHT22;2995;-31.998;115.906;2023-02-15T11:14:02;22.40;99.90
5940;DHT22;2995;-31.998;115.906;2023-02-15T11:16:37;22.40;99.90
5940;DHT22;2995;-31.998;115.906;2023-02-15T11:19:16;22.40;99.90
5940;DHT22;2995;-31.998;115.906;2023-02-15T11:21:53;22.30;99.90
5940;DHT22;2995;-31.998;115.906;2023-02-15T11:24:29;22.30;99.90
5940;DHT22;2995;-31.998;115.906;2023-02-15T11:27:05;22.40;99.90
5940;DHT22;2995;-31.998;115.906;2023-02-15T11:29:38;22.40;99.90
5940;DHT22;2995;-31.998;115.906;2023-02-15T11:32:20;22.30;99.90
5940;DHT22;2995;-31.998;115.906;2023-02-15T11:34:55;22.20;99.90
5940;DHT22;2995;-31.998;115.906;2023-02-15T11:37:35;22.00;99.90
5940;DHT22;2995;-31.998;115.906;2023-02-15T11:40:19;21.90;99.90
5940;DHT22;2995;-31.998;115.906;2023-02-15T11:42:53;21.90;99.90
5940;DHT22;2995;-31.998;115.906;2023-02-15T11:45:29;21.70;99.90
5940;DHT22;2995;-31.998;115.906;2023-02-15T11:48:01;21.80;99.90
5940;DHT22;2995;-31.998;115.906;2023-02-15T11:50:39;21.90;99.90
5940;DHT22;2995;-31.998;115.906;2023-02-15T11:53:13;21.80;99.90
5940;DHT22;2995;-31.998;115.906;2023-02-15T11:55:48;21.80;99.90
5940;DHT22;2995;-31.998;115.906;2023-02-15T11:58:29;21.60;99.90
5940;DHT22;2995;-31.998;115.906;2023-02-15T12:01:07;21.70;99.90
5940;DHT22;2995;-31.998;115.906;2023-02-15T12:03:45;21.60;99.90
5940;DHT22;2995;-31.998;115.906;2023-02-15T12:06:21;21.70;99.90
5940;DHT22;2995;-31.998;115.906;2023-02-15T12:09:01;21.60;99.90
5940;DHT22;2995;-31.998;115.906;2023-02-15T12:11:37;21.50;99.90
5940;DHT22;2995;-31.998;115.906;2023-02-15T12:14:10;21.50;99.90
5940;DHT22;2995;-31.998;115.906;2023-02-15T12:16:44;21.40;99.90
5940;DHT22;2995;-31.998;115.906;2023-02-15T12:19:28;21.30;99.90
5940;DHT22;2995;-31.998;115.906;2023-02-15T12:22:01;21.30;99.90
5940;DHT22;2995;-31.998;115.906;2023-02-15T12:24:36;21.10;99.90
5940;DHT22;2995;-31.998;115.906;2023-02-15T12:27:17;21.00;99.90
5940;DHT22;2995;-31.998;115.906;2023-02-15T12:29:51;21.20;99.90
5940;DHT22;2995;-31.998;115.906;2023-02-15T12:32:25;21.20;99.90
5940;DHT22;2995;-31.998;115.906;2023-02-15T12:35:01;21.30;99.90
5940;DHT22;2995;-31.998;115.906;2023-02-15T12:37:33;21.10;99.90
5940;DHT22;2995;-31.998;115.906;2023-02-15T12:40:19;21.10;99.90
5940;DHT22;2995;-31.998;115.906;2023-02-15T12:42:53;21.20;99.90
5940;DHT22;2995;-31.998;115.906;2023-02-15T12:45:27;20.90;99.90
5940;DHT22;2995;-31.998;115.906;2023-02-15T12:48:15;20.80;99.90
5940;DHT22;2995;-31.998;115.906;2023-02-15T12:50:48;20.80;99.90
5940;DHT22;2995;-31.998;115.906;2023-02-15T12:53:21;20.80;99.90
5940;DHT22;2995;-31.998;115.906;2023-02-15T12:55:54;20.70;99.90
5940;DHT22;2995;-31.998;115.906;2023-02-15T12:58:29;20.60;99.90
5940;DHT22;2995;-31.998;115.906;2023-02-15T13:01:10;20.60;99.90
5940;DHT22;2995;-31.998;115.906;2023-02-15T13:03:55;20.70;99.90
5940;DHT22;2995;-31.998;115.906;2023-02-15T13:06:28;20.70;99.90
5940;DHT22;2995;-31.998;115.906;2023-02-15T13:09:11;20.70;99.90
5940;DHT22;2995;-31.998;115.906;2023-02-15T13:11:45;20.60;99.90
5940;DHT22;2995;-31.998;115.906;2023-02-15T13:14:28;20.40;99.90
5940;DHT22;2995;-31.998;115.906;2023-02-15T13:17:03;20.50;99.90
5940;DHT22;2995;-31.998;115.906;2023-02-15T13:19:38;20.50;99.90
5940;DHT22;2995;-31.998;115.906;2023-02-15T13:22:14;20.50;99.90
5940;DHT22;2995;-31.998;115.906;2023-02-15T13:24:48;20.40;99.90
5940;DHT22;2995;-31.998;115.906;2023-02-15T13:27:23;20.40;99.90
5940;DHT22;2995;-31.998;115.906;2023-02-15T13:29:58;20.30;99.90
5940;DHT22;2995;-31.998;115.906;2023-02-15T13:32:33;20.30;99.90
5940;DHT22;2995;-31.998;115.906;2023-02-15T13:35:10;20.30;99.90
5940;DHT22;2995;-31.998;115.906;2023-02-15T13:37:59;20.20;99.90
5940;DHT22;2995;-31.998;115.906;2023-02-15T13:40:36;20.30;99.90
5940;DHT22;2995;-31.998;115.906;2023-02-15T13:43:19;20.10;99.90
5940;DHT22;2995;-31.998;115.906;2023-02-15T13:46:06;20.00;99.90
5940;DHT22;2995;-31.998;115.906;2023-02-15T13:48:45;20.10;99.90
5940;DHT22;2995;-31.998;115.906;2023-02-15T13:51:21;20.20;99.90
5940;DHT22;2995;-31.998;115.906;2023-02-15T13:56:58;20.20;99.90
5940;DHT22;2995;-31.998;115.906;2023-02-15T13:59:42;20.20;99.90
5940;DHT22;2995;-31.998;115.906;2023-02-15T14:03:01;20.10;99.90
5940;DHT22;2995;-31.998;115.906;2023-02-15T14:05:56;20.10;99.90
5940;DHT22;2995;-31.998;115.906;2023-02-15T14:08:45;20.10;99.90
5940;DHT22;2995;-31.998;115.906;2023-02-15T14:11:24;20.00;99.90
5940;DHT22;2995;-31.998;115.906;2023-02-15T14:14:19;20.00;99.90
5940;DHT22;2995;-31.998;115.906;2023-02-15T14:16:58;19.90;99.90
5940;DHT22;2995;-31.998;115.906;2023-02-15T14:19:37;19.80;99.90
5940;DHT22;2995;-31.998;115.906;2023-02-15T14:22:18;19.80;99.90
5940;DHT22;2995;-31.998;115.906;2023-02-15T14:24:59;19.80;99.90
5940;DHT22;2995;-31.998;115.906;2023-02-15T14:27:47;19.70;99.90
5940;DHT22;2995;-31.998;115.906;2023-02-15T14:30:23;19.70;99.90
5940;DHT22;2995;-31.998;115.906;2023-02-15T14:32:57;19.70;99.90
5940;DHT22;2995;-31.998;115.906;2023-02-15T14:35:33;19.60;99.90
5940;DHT22;2995;-31.998;115.906;2023-02-15T14:38:12;19.60;99.90
5940;DHT22;2995;-31.998;115.906;2023-02-15T14:40:51;19.50;99.90
5940;DHT22;2995;-31.998;115.906;2023-02-15T14:43:37;19.50;99.90
5940;DHT22;2995;-31.998;115.906;2023-02-15T14:46:21;19.60;99.90
5940;DHT22;2995;-31.998;115.906;2023-02-15T14:48:55;19.60;99.90
5940;DHT22;2995;-31.998;115.906;2023-02-15T14:52:02;19.70;99.90
5940;DHT22;2995;-31.998;115.906;2023-02-15T14:54:56;19.70;99.90
5940;DHT22;2995;-31.998;115.906;2023-02-15T14:57:30;19.50;99.90
5940;DHT22;2995;-31.998;115.906;2023-02-15T15:02:49;19.40;99.90
5940;DHT22;2995;-31.998;115.906;2023-02-15T15:05:28;19.50;99.90
5940;DHT22;2995;-31.998;115.906;2023-02-15T15:08:06;19.30;99.90
5940;DHT22;2995;-31.998;115.906;2023-02-15T15:10:40;19.20;99.90
5940;DHT22;2995;-31.998;115.906;2023-02-15T15:13:39;19.30;99.90
5940;DHT22;2995;-31.998;115.906;2023-02-15T15:16:48;19.30;99.90
5940;DHT22;2995;-31.998;115.906;2023-02-15T15:22:37;19.10;99.90
5940;DHT22;2995;-31.998;115.906;2023-02-15T15:25:40;19.10;99.90
5940;DHT22;2995;-31.998;115.906;2023-02-15T15:31:32;19.00;99.90
5940;DHT22;2995;-31.998;115.906;2023-02-15T15:34:58;19.00;99.90
5940;DHT22;2995;-31.998;115.906;2023-02-15T15:38:06;18.90;99.90
5940;DHT22;2995;-31.998;115.906;2023-02-15T15:41:15;18.80;99.90
5940;DHT22;2995;-31.998;115.906;2023-02-15T15:44:19;18.80;99.90
5940;DHT22;2995;-31.998;115.906;2023-02-15T15:47:11;18.70;99.90
5940;DHT22;2995;-31.998;115.906;2023-02-15T15:49:47;18.70;99.90
5940;DHT22;2995;-31.998;115.906;2023-02-15T15:52:20;18.70;99.90
5940;DHT22;2995;-31.998;115.906;2023-02-15T15:54:54;18.60;99.90
5940;DHT22;2995;-31.998;115.906;2023-02-15T15:57:31;18.50;99.90
5940;DHT22;2995;-31.998;115.906;2023-02-15T16:00:04;18.50;99.90
5940;DHT22;2995;-31.998;115.906;2023-02-15T16:02:52;18.50;99.90
5940;DHT22;2995;-31.998;115.906;2023-02-15T16:05:24;18.50;99.90
5940;DHT22;2995;-31.998;115.906;2023-02-15T16:07:56;18.40;99.90
5940;DHT22;2995;-31.998;115.906;2023-02-15T16:10:28;18.40;99.90
5940;DHT22;2995;-31.998;115.906;2023-02-15T16:13:04;18.40;99.90
5940;DHT22;2995;-31.998;115.906;2023-02-15T16:15:43;18.30;99.90
5940;DHT22;2995;-31.998;115.906;2023-02-15T16:18:18;18.30;99.90
5940;DHT22;2995;-31.998;115.906;2023-02-15T16:20:52;18.20;99.90
5940;DHT22;2995;-31.998;115.906;2023-02-15T16:23:59;18.30;99.90
5940;DHT22;2995;-31.998;115.906;2023-02-15T16:26:49;18.30;99.90
5940;DHT22;2995;-31.998;115.906;2023-02-15T16:29:31;18.20;99.90
5940;DHT22;2995;-31.998;115.906;2023-02-15T16:32:04;18.20;99.90
5940;DHT22;2995;-31.998;115.906;2023-02-15T16:34:35;18.10;99.90